Time;durP1;ratioP1;P1;durP2;ratioP2;P2;SDS_P1;SDS_P2;PMS_P1;PMS_P2;Temp;Humidity;BMP_temperature;BMP_pressure;BME280_temperature;BME280_humidity;BME280_pressure;Samples;Min_cycle;Max_cycle;Signal;HPM_P1;HPM_P2
2023/11/06 00:00:11;;;;;;;3.50;1.47;;;7.70;99.90;;;;;;5078359;28;20451;-70
2023/11/06 00:02:37;;;;;;;1.67;1.37;;;7.70;99.90;;;;;;5062805;28;20173;-70
2023/11/06 00:05:04;;;;;;;2.33;1.70;;;7.80;99.90;;;;;;5077861;28;20480;-69
2023/11/06 00:07:30;;;;;;;2.40;1.53;;;7.80;99.90;;;;;;5082101;28;20181;-69
2023/11/06 00:09:56;;;;;;;2.40;1.60;;;7.80;99.90;;;;;;5054565;28;20452;-70
2023/11/06 00:12:22;;;;;;;5.80;2.20;;;7.80;99.90;;;;;;5079556;28;20448;-70
2023/11/06 00:14:47;;;;;;;1.90;1.73;;;7.80;99.90;;;;;;5075721;28;20187;-70
2023/11/06 00:17:14;;;;;;;2.60;1.63;;;7.80;99.90;;;;;;5091496;28;20825;-70
2023/11/06 00:19:39;;;;;;;2.60;1.57;;;7.80;99.90;;;;;;5075523;28;20192;-69
2023/11/06 00:22:06;;;;;;;2.37;1.60;;;7.80;99.90;;;;;;5074730;28;20493;-69
2023/11/06 00:24:31;;;;;;;2.80;1.97;;;7.70;99.90;;;;;;5079166;28;20179;-69
2023/11/06 00:26:57;;;;;;;2.17;1.50;;;7.80;99.90;;;;;;5084628;28;20430;-69
2023/11/06 00:29:22;;;;;;;3.60;1.90;;;7.70;99.90;;;;;;5086313;28;20546;-69
2023/11/06 00:31:48;;;;;;;1.80;1.50;;;7.70;99.90;;;;;;5094002;28;20648;-69
2023/11/06 00:34:14;;;;;;;4.87;1.60;;;7.70;99.90;;;;;;5071666;28;20188;-69
2023/11/06 00:36:40;;;;;;;6.60;1.60;;;7.60;99.90;;;;;;5081649;28;20245;-69
2023/11/06 00:39:07;;;;;;;4.00;1.80;;;7.60;99.90;;;;;;5088676;28;20422;-69
2023/11/06 00:41:32;;;;;;;3.40;1.47;;;7.60;99.90;;;;;;5074591;28;20689;-69
2023/11/06 00:43:58;;;;;;;2.70;1.70;;;7.50;99.90;;;;;;5078142;28;20536;-69
2023/11/06 00:46:24;;;;;;;2.40;1.70;;;7.50;99.90;;;;;;5071548;28;20173;-69
2023/11/06 00:48:49;;;;;;;3.60;1.60;;;7.50;99.90;;;;;;5075568;28;20239;-70
2023/11/06 00:51:15;;;;;;;1.63;1.53;;;7.60;99.90;;;;;;5079310;28;20641;-69
2023/11/06 00:53:41;;;;;;;5.13;1.70;;;7.50;99.90;;;;;;5065790;28;20264;-69
2023/11/06 00:56:07;;;;;;;4.50;2.53;;;7.50;99.90;;;;;;5082369;28;20510;-69
2023/11/06 00:58:33;;;;;;;3.60;1.70;;;7.50;99.90;;;;;;5076471;28;20173;-69
2023/11/06 01:00:58;;;;;;;2.53;1.60;;;7.50;99.90;;;;;;5085515;28;20454;-69
2023/11/06 01:03:24;;;;;;;4.53;3.00;;;7.60;99.90;;;;;;5091851;28;20171;-69
2023/11/06 01:05:49;;;;;;;4.33;1.50;;;7.50;99.90;;;;;;5074803;28;20260;-70
2023/11/06 01:08:15;;;;;;;3.10;1.90;;;7.60;99.90;;;;;;5082407;28;20726;-70
2023/11/06 01:10:40;;;;;;;3.63;1.50;;;7.50;99.90;;;;;;5088436;28;20217;-69
2023/11/06 01:13:06;;;;;;;5.27;2.03;;;7.50;99.90;;;;;;5057031;28;20202;-70
2023/11/06 01:15:32;;;;;;;6.57;1.87;;;7.50;99.90;;;;;;5075627;28;20215;-69
2023/11/06 01:17:58;;;;;;;3.43;1.70;;;7.50;99.90;;;;;;5074304;28;20199;-69
2023/11/06 01:20:24;;;;;;;3.30;1.57;;;7.50;99.90;;;;;;5071460;28;20589;-70
2023/11/06 01:22:50;;;;;;;4.10;1.80;;;7.50;99.90;;;;;;5074957;28;20453;-69
2023/11/06 01:25:16;;;;;;;3.17;1.90;;;7.50;99.90;;;;;;5080445;28;20180;-69
2023/11/06 01:27:41;;;;;;;5.60;2.93;;;7.50;99.90;;;;;;5078350;28;20491;-69
2023/11/06 01:30:09;;;;;;;11.90;2.40;;;7.50;99.90;;;;;;5077837;28;20386;-69
2023/11/06 01:32:35;;;;;;;2.80;2.57;;;7.50;99.90;;;;;;5071713;28;20184;-69
2023/11/06 01:35:00;;;;;;;2.70;1.40;;;7.60;99.90;;;;;;5066294;28;20438;-70
2023/11/06 01:37:26;;;;;;;2.80;1.70;;;7.60;99.90;;;;;;5073712;28;20233;-69
2023/11/06 01:39:52;;;;;;;4.00;1.60;;;7.60;99.90;;;;;;5084933;28;20192;-69
2023/11/06 01:42:18;;;;;;;3.13;2.23;;;7.60;99.90;;;;;;5081581;28;20177;-69
2023/11/06 01:44:43;;;;;;;4.90;1.50;;;7.60;99.90;;;;;;5055887;28;20435;-69
2023/11/06 01:47:09;;;;;;;2.70;1.87;;;7.60;99.90;;;;;;5080375;28;20214;-69
2023/11/06 01:49:39;;;;;;;2.57;1.57;;;7.60;99.90;;;;;;5084215;28;20562;-69
2023/11/06 01:52:06;;;;;;;3.47;1.40;;;7.50;99.90;;;;;;5093261;28;20663;-69
2023/11/06 01:54:33;;;;;;;4.57;1.47;;;7.60;99.90;;;;;;5066930;28;20496;-69
2023/11/06 01:57:00;;;;;;;4.60;1.70;;;7.50;99.90;;;;;;5076830;28;20477;-69
2023/11/06 01:59:25;;;;;;;2.50;1.33;;;7.50;99.90;;;;;;5084199;28;20875;-69
2023/11/06 02:01:55;;;;;;;3.20;1.27;;;7.50;99.90;;;;;;5052878;28;20426;-69
2023/11/06 02:04:21;;;;;;;5.50;1.37;;;7.50;99.90;;;;;;5052523;28;20162;-69
2023/11/06 02:06:48;;;;;;;2.07;1.20;;;7.60;99.90;;;;;;5073898;28;20435;-69
2023/11/06 02:09:13;;;;;;;2.30;1.30;;;7.60;99.90;;;;;;5071067;28;20314;-69
2023/11/06 02:11:39;;;;;;;3.93;1.10;;;7.60;99.90;;;;;;5072570;28;20470;-69
2023/11/06 02:14:05;;;;;;;5.17;1.80;;;7.60;99.90;;;;;;5065272;28;20933;-69
2023/11/06 02:16:31;;;;;;;2.23;1.77;;;7.60;99.90;;;;;;5074011;28;20204;-69
2023/11/06 02:18:57;;;;;;;1.87;1.17;;;7.60;99.90;;;;;;5086856;28;20168;-69
2023/11/06 02:21:23;;;;;;;2.43;1.30;;;7.70;99.90;;;;;;5092589;28;20406;-69
2023/11/06 02:23:49;;;;;;;2.10;1.03;;;7.60;99.90;;;;;;5077138;28;20959;-69
2023/11/06 02:26:15;;;;;;;2.53;1.27;;;7.60;99.90;;;;;;5072976;28;21009;-69
2023/11/06 02:28:41;;;;;;;3.03;1.30;;;7.60;99.90;;;;;;5079369;28;20184;-69
2023/11/06 02:31:06;;;;;;;5.17;1.20;;;7.50;99.90;;;;;;5076706;28;20192;-69
2023/11/06 02:33:32;;;;;;;1.80;1.50;;;7.60;99.90;;;;;;5071991;28;20535;-69
2023/11/06 02:35:57;;;;;;;4.40;1.40;;;7.60;99.90;;;;;;5070780;28;20176;-69
2023/11/06 02:38:23;;;;;;;1.70;1.13;;;7.70;99.90;;;;;;5084033;28;20204;-69
2023/11/06 02:40:48;;;;;;;2.10;1.00;;;7.60;99.90;;;;;;5064758;28;20230;-69
2023/11/06 02:43:14;;;;;;;1.90;1.30;;;7.60;99.90;;;;;;5080224;28;20169;-69
2023/11/06 02:45:39;;;;;;;5.50;2.63;;;7.60;99.90;;;;;;5089368;28;20180;-69
2023/11/06 02:48:05;;;;;;;2.87;1.03;;;7.70;99.90;;;;;;5083846;28;20222;-69
2023/11/06 02:50:31;;;;;;;3.63;1.10;;;7.80;99.90;;;;;;5092261;28;20204;-69
2023/11/06 02:52:56;;;;;;;2.40;1.00;;;7.80;99.90;;;;;;5074317;28;20271;-69
2023/11/06 02:55:22;;;;;;;3.17;1.53;;;7.80;99.90;;;;;;5065849;28;20185;-69
2023/11/06 02:57:48;;;;;;;3.50;1.30;;;7.70;99.90;;;;;;5078564;28;20211;-69
2023/11/06 03:00:13;;;;;;;3.43;1.10;;;7.70;99.90;;;;;;5088601;28;20561;-69
2023/11/06 03:02:40;;;;;;;2.43;1.20;;;7.70;99.90;;;;;;5078966;28;20215;-69
2023/11/06 03:05:08;;;;;;;3.73;1.10;;;7.70;99.90;;;;;;5081856;28;20599;-69
2023/11/06 03:07:34;;;;;;;2.23;1.20;;;7.70;99.90;;;;;;5083024;28;20441;-69
2023/11/06 03:10:00;;;;;;;1.57;1.00;;;7.70;99.90;;;;;;5079103;28;20486;-69
2023/11/06 03:12:25;;;;;;;4.03;1.10;;;7.70;99.90;;;;;;5083817;28;20172;-69
2023/11/06 03:14:51;;;;;;;2.33;1.40;;;7.60;99.90;;;;;;5065791;28;20543;-70
2023/11/06 03:17:18;;;;;;;7.90;1.60;;;7.70;99.90;;;;;;5080564;28;20287;-69
2023/11/06 03:19:43;;;;;;;4.83;1.10;;;7.60;99.90;;;;;;5068997;28;20803;-69
2023/11/06 03:22:09;;;;;;;3.00;1.63;;;7.60;99.90;;;;;;5075937;28;20427;-69
2023/11/06 03:24:34;;;;;;;2.30;1.10;;;7.60;99.90;;;;;;5091172;28;20169;-69
2023/11/06 03:27:00;;;;;;;2.60;1.40;;;7.60;99.90;;;;;;5073251;28;20646;-69
2023/11/06 03:29:25;;;;;;;3.80;1.43;;;7.60;99.90;;;;;;5079579;28;20276;-69
2023/11/06 03:31:51;;;;;;;2.57;1.07;;;7.60;99.90;;;;;;5092023;28;20198;-69
2023/11/06 03:34:17;;;;;;;2.30;0.90;;;7.60;99.90;;;;;;5084069;28;20184;-69
2023/11/06 03:36:45;;;;;;;1.67;1.20;;;7.60;99.90;;;;;;5080101;28;20280;-69
2023/11/06 03:39:14;;;;;;;1.63;1.20;;;7.70;99.90;;;;;;5091997;28;20424;-69
2023/11/06 03:41:40;;;;;;;1.80;0.90;;;7.80;99.90;;;;;;5090698;28;20438;-69
2023/11/06 03:44:05;;;;;;;4.20;1.37;;;7.90;99.90;;;;;;5081025;28;20418;-69
2023/11/06 03:46:32;;;;;;;3.40;1.50;;;7.90;99.90;;;;;;5083521;28;20179;-69
2023/11/06 03:48:57;;;;;;;4.43;1.23;;;8.00;99.90;;;;;;5087280;28;20269;-69
2023/11/06 03:51:23;;;;;;;2.53;1.23;;;7.90;99.90;;;;;;5075260;28;20886;-68
2023/11/06 03:53:49;;;;;;;3.53;1.20;;;7.90;99.90;;;;;;5075080;28;20192;-69
2023/11/06 03:56:14;;;;;;;3.90;1.53;;;8.00;99.90;;;;;;5079535;28;20433;-69
2023/11/06 03:58:40;;;;;;;1.77;1.10;;;8.00;99.90;;;;;;5079906;28;20185;-69
2023/11/06 04:01:05;;;;;;;2.90;1.17;;;8.00;99.90;;;;;;5070548;28;20193;-69
2023/11/06 04:03:31;;;;;;;4.07;1.60;;;8.10;99.90;;;;;;5093033;28;20165;-69
2023/11/06 04:05:58;;;;;;;7.33;1.10;;;8.10;99.90;;;;;;5091197;28;20172;-69
2023/11/06 04:08:24;;;;;;;2.87;1.10;;;8.10;99.90;;;;;;5086817;28;20175;-69
2023/11/06 04:10:50;;;;;;;1.40;1.10;;;8.20;99.90;;;;;;5080158;28;20466;-69
2023/11/06 04:13:15;;;;;;;4.53;1.20;;;8.20;99.90;;;;;;5089605;28;20629;-69
2023/11/06 04:15:41;;;;;;;2.57;1.43;;;8.10;99.90;;;;;;5062397;28;20176;-70
2023/11/06 04:18:06;;;;;;;1.70;1.17;;;8.10;99.90;;;;;;5086596;28;20731;-69
2023/11/06 04:20:32;;;;;;;8.47;1.40;;;8.10;99.90;;;;;;5079984;28;20248;-69
2023/11/06 04:22:57;;;;;;;6.43;2.30;;;8.10;99.90;;;;;;5067445;28;20680;-69
2023/11/06 04:25:23;;;;;;;2.47;1.10;;;8.10;99.90;;;;;;5080264;28;20186;-69
2023/11/06 04:27:49;;;;;;;2.97;1.20;;;8.10;99.90;;;;;;5086455;28;20169;-69
2023/11/06 04:30:15;;;;;;;2.80;0.83;;;8.10;99.90;;;;;;5094821;28;20864;-69
2023/11/06 04:32:40;;;;;;;2.63;1.10;;;8.00;99.90;;;;;;5060826;28;20177;-69
2023/11/06 04:35:06;;;;;;;3.17;1.27;;;8.00;99.90;;;;;;5063071;28;20196;-69
2023/11/06 04:37:34;;;;;;;2.43;1.20;;;8.00;99.90;;;;;;5073789;28;20200;-69
2023/11/06 04:40:00;;;;;;;8.97;1.37;;;8.00;99.90;;;;;;5080828;28;20203;-69
2023/11/06 04:42:26;;;;;;;3.33;1.57;;;7.90;99.90;;;;;;5068985;28;20432;-69
2023/11/06 04:44:51;;;;;;;1.30;0.90;;;8.00;99.90;;;;;;5085188;28;20461;-69
2023/11/06 04:47:17;;;;;;;3.90;0.87;;;7.90;99.90;;;;;;5064521;28;20460;-69
2023/11/06 04:49:43;;;;;;;1.70;0.90;;;7.90;99.90;;;;;;5081944;28;20204;-69
2023/11/06 04:52:08;;;;;;;1.60;1.50;;;7.80;99.90;;;;;;5072394;28;20218;-69
2023/11/06 04:54:34;;;;;;;5.53;1.83;;;7.80;99.90;;;;;;5084974;28;20180;-69
2023/11/06 04:56:59;;;;;;;1.53;0.97;;;7.70;99.90;;;;;;5077416;28;20316;-69
2023/11/06 04:59:25;;;;;;;2.73;1.10;;;7.80;99.90;;;;;;5075684;28;20193;-69
2023/11/06 05:01:50;;;;;;;2.03;1.00;;;7.70;99.90;;;;;;5072263;28;20173;-68
2023/11/06 05:04:16;;;;;;;2.97;1.00;;;7.70;99.90;;;;;;5061951;28;20198;-69
2023/11/06 05:06:42;;;;;;;3.87;1.47;;;7.70;99.90;;;;;;5062962;28;20180;-69
2023/11/06 05:09:10;;;;;;;6.10;3.30;;;7.70;99.90;;;;;;5087087;28;20237;-68
2023/11/06 05:11:36;;;;;;;3.80;1.00;;;7.70;99.90;;;;;;5073461;28;20193;-69
2023/11/06 05:14:01;;;;;;;2.87;1.30;;;7.60;99.90;;;;;;5073510;28;20419;-69
2023/11/06 05:16:28;;;;;;;4.10;1.73;;;7.60;99.90;;;;;;5061045;28;20211;-69
2023/11/06 05:18:54;;;;;;;1.83;1.00;;;7.60;99.90;;;;;;5071018;28;20173;-69
2023/11/06 05:21:26;;;;;;;1.00;0.83;;;7.70;99.90;;;;;;5070861;28;20856;-69
2023/11/06 05:23:52;;;;;;;2.97;1.20;;;7.70;99.90;;;;;;5077554;28;20181;-70
2023/11/06 05:26:18;;;;;;;3.03;1.13;;;7.70;99.90;;;;;;5073616;28;20411;-69
2023/11/06 05:28:44;;;;;;;5.13;3.50;;;7.80;99.90;;;;;;5074115;28;20572;-69
2023/11/06 05:31:10;;;;;;;4.60;2.10;;;7.80;99.90;;;;;;5081183;28;20215;-69
2023/11/06 05:33:36;;;;;;;1.13;0.70;;;7.90;99.90;;;;;;5072918;28;20445;-69
2023/11/06 05:36:02;;;;;;;5.23;1.40;;;7.90;99.90;;;;;;5073880;28;20432;-69
2023/11/06 05:38:28;;;;;;;2.00;0.67;;;7.90;99.90;;;;;;5075433;28;20995;-69
2023/11/06 05:40:53;;;;;;;2.80;1.50;;;7.90;99.90;;;;;;5079429;28;20193;-70
2023/11/06 05:43:19;;;;;;;3.17;0.70;;;7.90;99.90;;;;;;5072997;28;20260;-69
2023/11/06 05:45:44;;;;;;;2.30;0.97;;;7.80;99.90;;;;;;5073104;28;20247;-69
2023/11/06 05:48:10;;;;;;;6.27;2.90;;;7.90;99.90;;;;;;5079938;28;20314;-69
2023/11/06 05:50:36;;;;;;;2.43;1.27;;;7.90;99.90;;;;;;5078174;28;20549;-69
2023/11/06 05:53:01;;;;;;;3.43;0.90;;;7.80;99.90;;;;;;5072784;28;20172;-69
2023/11/06 05:55:27;;;;;;;2.63;0.80;;;7.80;99.90;;;;;;5073022;28;20787;-69
2023/11/06 05:57:53;;;;;;;1.17;0.70;;;7.70;99.90;;;;;;5067326;28;20279;-69
2023/11/06 06:00:19;;;;;;;1.93;0.93;;;7.60;99.90;;;;;;5079696;28;20192;-69
2023/11/06 06:02:44;;;;;;;4.60;1.07;;;7.60;99.90;;;;;;5065986;28;20165;-69
2023/11/06 06:05:10;;;;;;;0.90;0.90;;;7.60;99.90;;;;;;5080994;28;20169;-69
2023/11/06 06:07:36;;;;;;;1.53;1.13;;;7.60;99.90;;;;;;5080243;28;20932;-69
2023/11/06 06:10:03;;;;;;;1.70;0.77;;;7.60;99.90;;;;;;5087615;28;20212;-69
2023/11/06 06:12:29;;;;;;;4.60;0.97;;;7.50;99.90;;;;;;5071500;28;20180;-69
2023/11/06 06:14:55;;;;;;;3.07;1.30;;;7.50;99.90;;;;;;5076471;28;20867;-69
2023/11/06 06:17:21;;;;;;;2.03;1.20;;;7.50;99.90;;;;;;5074198;28;20196;-69
2023/11/06 06:19:46;;;;;;;8.77;3.87;;;7.50;99.90;;;;;;5067493;28;20852;-69
2023/11/06 06:22:13;;;;;;;2.77;1.33;;;7.40;99.90;;;;;;5069100;28;20189;-69
2023/11/06 06:24:38;;;;;;;3.33;1.67;;;7.40;99.90;;;;;;5074538;28;20196;-69
2023/11/06 06:27:04;;;;;;;2.97;1.50;;;7.40;99.90;;;;;;5085479;28;20419;-69
2023/11/06 06:29:30;;;;;;;1.27;1.10;;;7.40;99.90;;;;;;5072313;28;20185;-69
2023/11/06 06:31:56;;;;;;;4.57;1.10;;;7.40;99.90;;;;;;5066455;28;20270;-69
2023/11/06 06:34:23;;;;;;;1.47;1.20;;;7.50;99.90;;;;;;5075091;28;20176;-69
2023/11/06 06:36:49;;;;;;;3.00;1.53;;;7.50;99.90;;;;;;5072945;28;20455;-69
2023/11/06 06:39:14;;;;;;;0.73;0.70;;;7.40;99.90;;;;;;5056255;28;21842;-69
2023/11/06 06:41:41;;;;;;;2.33;1.00;;;7.50;99.90;;;;;;5074410;28;20664;-69
2023/11/06 06:44:06;;;;;;;1.23;1.03;;;7.40;99.90;;;;;;5079078;28;20221;-68
2023/11/06 06:46:32;;;;;;;1.07;0.97;;;7.50;99.90;;;;;;5059397;28;20435;-69
2023/11/06 06:48:57;;;;;;;1.20;0.80;;;7.50;99.90;;;;;;5064620;28;20172;-69
2023/11/06 06:51:23;;;;;;;5.20;0.90;;;7.40;99.90;;;;;;5068608;28;20659;-70
2023/11/06 06:53:50;;;;;;;1.10;1.00;;;7.40;99.90;;;;;;5073021;28;20688;-70
2023/11/06 06:56:16;;;;;;;1.53;1.20;;;7.50;99.90;;;;;;5062323;28;20204;-72
2023/11/06 06:58:42;;;;;;;1.87;1.20;;;7.70;99.90;;;;;;5068611;28;20475;-72
2023/11/06 07:01:08;;;;;;;2.90;1.57;;;7.90;99.90;;;;;;5077157;28;20469;-71
2023/11/06 07:03:36;;;;;;;2.47;2.27;;;8.10;99.90;;;;;;5067970;28;20775;-73
2023/11/06 07:06:03;;;;;;;2.87;0.80;;;8.40;99.90;;;;;;5051178;28;20201;-73
2023/11/06 07:08:29;;;;;;;4.03;1.47;;;8.50;99.90;;;;;;5069379;28;20440;-69
2023/11/06 07:10:55;;;;;;;1.10;1.00;;;8.70;99.90;;;;;;5081658;28;20465;-69
2023/11/06 07:13:20;;;;;;;1.50;0.80;;;9.00;99.90;;;;;;5064355;28;20469;-69
2023/11/06 07:15:46;;;;;;;2.20;0.97;;;9.20;99.90;;;;;;5061704;28;20181;-68
2023/11/06 07:18:11;;;;;;;2.23;1.20;;;9.40;99.90;;;;;;5075081;28;20290;-69
2023/11/06 07:20:37;;;;;;;6.63;1.47;;;9.50;99.90;;;;;;5058857;28;20607;-68
2023/11/06 07:23:04;;;;;;;3.00;1.07;;;9.70;99.90;;;;;;5071607;28;20188;-69
2023/11/06 07:25:29;;;;;;;3.13;1.57;;;10.00;99.90;;;;;;5070822;28;20661;-68
2023/11/06 07:27:56;;;;;;;2.03;1.20;;;10.20;99.90;;;;;;5063421;28;20431;-68
2023/11/06 07:30:23;;;;;;;5.17;2.70;;;10.40;99.90;;;;;;5059021;28;20675;-68
2023/11/06 07:32:48;;;;;;;2.43;1.53;;;10.70;99.90;;;;;;5069305;28;20785;-68
2023/11/06 07:35:14;;;;;;;5.80;1.43;;;10.70;99.90;;;;;;5062168;28;20427;-69
2023/11/06 07:37:40;;;;;;;1.30;1.20;;;10.50;99.90;;;;;;5079739;28;20192;-68
2023/11/06 07:40:08;;;;;;;2.10;1.77;;;10.40;99.90;;;;;;5064399;28;20548;-68
2023/11/06 07:42:33;;;;;;;5.43;3.60;;;10.70;99.90;;;;;;5070375;28;20620;-68
2023/11/06 07:44:59;;;;;;;2.83;1.40;;;11.20;99.90;;;;;;5060873;28;20438;-68
2023/11/06 07:47:24;;;;;;;3.20;1.50;;;11.70;99.90;;;;;;5073040;28;20562;-68
2023/11/06 07:49:50;;;;;;;1.50;1.03;;;12.30;99.90;;;;;;5065920;28;20206;-69
2023/11/06 07:52:17;;;;;;;3.87;1.47;;;12.90;99.90;;;;;;5070908;28;20192;-68
2023/11/06 07:54:43;;;;;;;1.80;1.30;;;13.20;99.90;;;;;;5064372;28;20195;-68
2023/11/06 07:57:09;;;;;;;3.60;2.50;;;13.50;99.90;;;;;;5068390;28;20463;-69
2023/11/06 07:59:42;;;;;;;5.67;2.83;;;14.00;99.90;;;;;;5076174;28;20454;-68
2023/11/06 08:02:10;;;;;;;2.80;1.30;;;14.40;99.90;;;;;;5055158;28;20197;-69
2023/11/06 08:04:42;;;;;;;3.30;1.70;;;14.20;99.90;;;;;;5065902;28;20927;-69
2023/11/06 08:07:07;;;;;;;2.40;1.70;;;14.70;99.90;;;;;;5078277;28;21100;-69
2023/11/06 08:09:33;;;;;;;2.87;1.33;;;14.70;99.90;;;;;;5072276;28;20520;-69
2023/11/06 08:12:00;;;;;;;2.27;1.37;;;15.40;99.90;;;;;;5057317;28;21943;-69
2023/11/06 08:14:25;;;;;;;3.10;1.70;;;15.80;99.90;;;;;;5065147;28;20522;-69
2023/11/06 08:16:51;;;;;;;3.57;1.27;;;15.70;99.90;;;;;;5062138;28;20535;-69
2023/11/06 08:19:16;;;;;;;1.70;1.50;;;15.60;99.90;;;;;;5072117;28;20218;-69
2023/11/06 08:21:42;;;;;;;1.70;1.03;;;15.60;99.90;;;;;;5071159;28;20186;-68
2023/11/06 08:24:08;;;;;;;1.80;1.17;;;15.80;99.90;;;;;;5074897;28;20187;-69
2023/11/06 08:26:33;;;;;;;2.60;1.40;;;15.90;99.90;;;;;;5078158;28;20191;-69
2023/11/06 08:28:59;;;;;;;3.47;1.17;;;16.10;99.90;;;;;;5080227;28;20426;-66
2023/11/06 08:31:25;;;;;;;1.93;1.30;;;16.40;99.90;;;;;;5072991;28;20181;-66
2023/11/06 08:33:50;;;;;;;3.70;1.37;;;16.50;99.90;;;;;;5077294;28;20666;-66
2023/11/06 08:36:16;;;;;;;2.17;1.97;;;17.50;99.90;;;;;;5076535;28;20185;-66
2023/11/06 08:38:42;;;;;;;6.03;1.50;;;17.60;99.90;;;;;;5078952;28;20592;-69
2023/11/06 08:41:09;;;;;;;2.73;1.17;;;17.20;99.90;;;;;;5070911;28;20467;-69
2023/11/06 08:43:35;;;;;;;2.33;1.60;;;17.20;99.90;;;;;;5062941;28;20923;-69
2023/11/06 08:46:02;;;;;;;2.00;1.50;;;17.90;99.90;;;;;;5061679;28;20428;-69
2023/11/06 08:48:28;;;;;;;3.53;1.30;;;18.40;99.90;;;;;;5065172;28;20554;-66
2023/11/06 08:50:53;;;;;;;3.20;1.13;;;18.50;99.90;;;;;;5084479;28;20456;-66
2023/11/06 08:53:19;;;;;;;2.10;0.87;;;17.40;99.90;;;;;;5072171;28;20450;-66
2023/11/06 08:55:44;;;;;;;2.77;1.23;;;16.00;99.90;;;;;;5076798;28;20189;-66
2023/11/06 08:58:16;;;;;;;3.30;2.27;;;15.00;99.90;;;;;;5066055;28;20681;-66
2023/11/06 09:00:45;;;;;;;2.20;1.57;;;15.00;99.90;;;;;;5066265;28;20213;-66
2023/11/06 09:03:12;;;;;;;1.47;1.00;;;15.00;99.90;;;;;;5057084;28;20741;-66
2023/11/06 09:05:38;;;;;;;1.97;1.23;;;15.00;99.90;;;;;;5073964;28;20426;-68
2023/11/06 09:08:04;;;;;;;2.50;1.50;;;16.40;99.90;;;;;;5061311;28;20947;-68
2023/11/06 09:10:30;;;;;;;3.60;1.40;;;17.40;99.90;;;;;;5069000;28;20459;-68
2023/11/06 09:12:57;;;;;;;4.00;1.43;;;17.80;99.90;;;;;;5074829;28;20242;-69
2023/11/06 09:15:23;;;;;;;1.43;1.33;;;18.20;99.90;;;;;;5082569;28;20792;-68
2023/11/06 09:17:48;;;;;;;3.03;1.40;;;18.50;99.90;;;;;;5075296;28;20443;-68
2023/11/06 09:20:14;;;;;;;3.10;2.10;;;18.10;99.90;;;;;;5080508;28;20396;-68
2023/11/06 09:22:41;;;;;;;8.70;1.40;;;17.90;99.90;;;;;;5074975;28;20183;-69
2023/11/06 09:25:08;;;;;;;3.73;2.03;;;18.30;99.90;;;;;;5075768;28;20192;-69
2023/11/06 09:27:36;;;;;;;3.77;1.40;;;17.40;99.90;;;;;;5081051;28;20450;-69
2023/11/06 09:30:02;;;;;;;1.63;1.33;;;17.20;99.90;;;;;;5071020;28;20542;-68
2023/11/06 09:32:27;;;;;;;6.03;1.73;;;17.30;99.90;;;;;;5059978;28;21181;-68
2023/11/06 09:34:53;;;;;;;2.67;1.90;;;18.30;99.90;;;;;;5068870;28;20195;-66
2023/11/06 09:37:19;;;;;;;2.70;1.30;;;20.00;99.90;;;;;;5075363;28;20202;-65
2023/11/06 09:39:44;;;;;;;2.37;1.53;;;19.60;99.90;;;;;;5073571;28;20203;-65
2023/11/06 09:42:13;;;;;;;2.83;1.87;;;18.40;99.90;;;;;;5066166;28;20226;-66
2023/11/06 09:44:38;;;;;;;4.30;2.77;;;18.30;99.90;;;;;;5064112;28;20325;-66
2023/11/06 09:47:07;;;;;;;2.00;1.40;;;19.20;99.90;;;;;;5071147;28;21016;-66
2023/11/06 09:49:45;;;;;;;1.97;1.60;;;18.50;99.90;;;;;;5067535;28;20255;-66
2023/11/06 09:52:12;;;;;;;2.10;1.53;;;18.80;99.90;;;;;;5073457;28;20877;-65
2023/11/06 09:54:41;;;;;;;3.13;1.27;;;19.30;99.90;;;;;;5069809;28;20444;-65
2023/11/06 09:57:08;;;;;;;1.90;1.50;;;19.60;99.60;;;;;;5067596;28;20797;-66
2023/11/06 09:59:34;;;;;;;1.47;1.27;;;19.80;99.50;;;;;;5076157;28;20469;-67
2023/11/06 10:02:00;;;;;;;1.30;0.97;;;20.50;97.20;;;;;;5058777;28;20435;-66
2023/11/06 10:04:27;;;;;;;1.63;1.07;;;20.50;95.80;;;;;;5065285;28;20193;-66
2023/11/06 10:06:53;;;;;;;3.73;1.20;;;20.50;95.40;;;;;;5068127;28;20177;-66
2023/11/06 10:09:23;;;;;;;1.37;0.90;;;20.20;96.30;;;;;;5075724;28;20469;-69
2023/11/06 10:11:49;;;;;;;1.27;1.17;;;19.60;97.80;;;;;;5059661;28;20577;-68
2023/11/06 10:14:15;;;;;;;1.00;0.80;;;20.20;97.90;;;;;;5071177;28;20911;-68
2023/11/06 10:16:40;;;;;;;1.67;1.03;;;21.40;92.50;;;;;;5062828;28;20478;-66
2023/11/06 10:19:10;;;;;;;1.60;0.90;;;21.90;91.20;;;;;;5081846;28;20176;-66
2023/11/06 10:21:35;;;;;;;2.30;1.20;;;23.10;83.30;;;;;;5073301;28;20251;-65
2023/11/06 10:24:02;;;;;;;1.80;1.03;;;24.80;74.50;;;;;;5064582;28;20518;-66
2023/11/06 10:26:32;;;;;;;2.10;1.40;;;24.50;67.00;;;;;;5075080;28;20205;-65
2023/11/06 10:29:14;;;;;;;1.40;1.30;;;22.90;72.30;;;;;;5070003;28;20923;-66
2023/11/06 10:31:42;;;;;;;2.50;1.33;;;22.90;74.90;;;;;;5069991;28;21188;-66
2023/11/06 10:34:29;;;;;;;1.43;1.10;;;24.30;70.00;;;;;;5067823;28;21004;-66
2023/11/06 10:37:05;;;;;;;1.47;1.17;;;23.50;66.40;;;;;;5057772;28;21048;-66
2023/11/06 10:39:31;;;;;;;1.30;1.10;;;22.00;71.30;;;;;;5060876;28;20553;-66
2023/11/06 10:42:05;;;;;;;2.87;1.50;;;22.90;70.80;;;;;;5067731;28;20463;-66
2023/11/06 10:44:36;;;;;;;1.60;0.87;;;21.80;72.60;;;;;;5065845;28;20431;-66
2023/11/06 10:47:07;;;;;;;0.83;0.80;;;18.70;90.40;;;;;;5066868;28;20521;-66
2023/11/06 10:49:42;;;;;;;1.43;1.00;;;17.80;97.00;;;;;;5069759;28;20528;-66
2023/11/06 10:52:08;;;;;;;2.27;1.50;;;17.50;98.80;;;;;;5072612;28;20439;-66
2023/11/06 10:54:35;;;;;;;2.07;1.00;;;17.00;99.90;;;;;;5066387;28;20528;-66
2023/11/06 10:57:01;;;;;;;2.50;1.10;;;16.80;99.90;;;;;;5065305;28;20666;-67
2023/11/06 10:59:31;;;;;;;1.13;0.97;;;16.70;99.90;;;;;;5066583;28;20965;-67
2023/11/06 11:01:57;;;;;;;2.20;1.10;;;16.30;99.90;;;;;;5073317;28;20513;-67
2023/11/06 11:04:24;;;;;;;2.40;1.30;;;15.70;99.90;;;;;;5069818;28;20436;-68
2023/11/06 11:06:51;;;;;;;2.07;1.47;;;15.10;99.90;;;;;;5069357;28;20442;-67
2023/11/06 11:09:17;;;;;;;1.40;1.20;;;14.60;99.90;;;;;;5073517;28;20469;-67
2023/11/06 11:11:43;;;;;;;1.40;1.10;;;14.30;99.90;;;;;;5060134;23;20488;-71
2023/11/06 11:14:13;;;;;;;3.23;1.13;;;14.20;99.90;;;;;;5028468;28;20429;-70
2023/11/06 11:16:45;;;;;;;2.87;1.23;;;14.20;99.90;;;;;;5026583;28;20205;-70
2023/11/06 11:19:24;;;;;;;3.83;1.20;;;14.00;99.90;;;;;;5036831;28;20448;-70
2023/11/06 11:22:10;;;;;;;1.37;1.27;;;13.90;99.90;;;;;;5041407;28;20940;-71
2023/11/06 11:24:42;;;;;;;2.13;0.90;;;13.90;99.90;;;;;;5027569;28;21196;-70
2023/11/06 11:27:11;;;;;;;5.33;1.63;;;13.90;99.90;;;;;;5036950;28;20440;-71
2023/11/06 11:29:56;;;;;;;3.80;1.07;;;13.80;99.90;;;;;;5038335;28;20523;-71
2023/11/06 11:32:27;;;;;;;3.90;1.33;;;13.60;99.90;;;;;;5040173;28;20503;-71
2023/11/06 11:34:57;;;;;;;1.20;0.70;;;13.60;99.90;;;;;;5042285;28;20948;-70
2023/11/06 11:37:31;;;;;;;2.10;1.83;;;13.90;99.90;;;;;;5043114;28;20867;-70
2023/11/06 11:39:59;;;;;;;2.10;1.47;;;14.20;99.90;;;;;;5025491;28;20491;-70
2023/11/06 11:42:25;;;;;;;2.23;2.00;;;14.10;99.90;;;;;;5033294;28;20432;-70
2023/11/06 11:44:52;;;;;;;3.33;1.20;;;14.00;99.90;;;;;;5025927;28;20433;-70
2023/11/06 11:47:18;;;;;;;1.20;0.90;;;14.00;99.90;;;;;;5021588;28;20446;-70
2023/11/06 11:49:45;;;;;;;2.10;1.00;;;14.00;99.90;;;;;;5020498;28;20463;-70
2023/11/06 11:52:35;;;;;;;1.37;1.20;;;14.20;99.90;;;;;;5023771;28;20202;-70
2023/11/06 11:55:37;;;;;;;2.60;1.33;;;14.20;99.90;;;;;;5022632;28;20444;-70
2023/11/06 11:58:05;;;;;;;3.90;1.73;;;14.50;99.90;;;;;;5028475;28;21040;-70
2023/11/06 12:00:42;;;;;;;0.80;0.70;;;14.70;99.90;;;;;;5030114;28;20448;-69
2023/11/06 12:03:16;;;;;;;0.73;0.73;;;14.40;99.90;;;;;;5029602;28;20440;-69
2023/11/06 12:05:43;;;;;;;1.87;1.77;;;14.30;99.90;;;;;;5036721;28;20437;-70
2023/11/06 12:08:16;;;;;;;1.63;0.97;;;15.50;99.90;;;;;;5043703;28;20464;-70
2023/11/06 12:10:43;;;;;;;1.77;0.83;;;16.80;99.90;;;;;;5028610;28;20479;-69
2023/11/06 12:13:14;;;;;;;0.80;0.80;;;16.80;99.90;;;;;;5032343;28;20480;-69
2023/11/06 12:15:39;;;;;;;1.53;0.87;;;16.20;99.90;;;;;;5035328;28;20443;-69
2023/11/06 12:18:06;;;;;;;1.47;0.87;;;15.80;99.90;;;;;;5033821;28;20731;-69
2023/11/06 12:20:32;;;;;;;0.90;0.90;;;15.60;99.90;;;;;;5035260;28;20190;-69
2023/11/06 12:23:02;;;;;;;0.80;0.80;;;15.40;99.90;;;;;;5035538;28;20436;-69
2023/11/06 12:25:35;;;;;;;0.93;0.73;;;15.20;99.90;;;;;;5032455;28;20300;-69
2023/11/06 12:28:05;;;;;;;1.00;0.90;;;14.60;99.90;;;;;;5027568;28;20444;-69
2023/11/06 12:30:35;;;;;;;1.00;0.60;;;14.30;99.90;;;;;;5039833;28;20461;-69
2023/11/06 12:33:15;;;;;;;1.30;1.00;;;13.90;99.90;;;;;;5044858;28;20450;-69
2023/11/06 12:35:42;;;;;;;1.27;0.87;;;13.70;99.90;;;;;;5038760;28;20527;-69
2023/11/06 12:38:07;;;;;;;2.10;0.80;;;13.50;99.90;;;;;;5038879;28;21008;-69
2023/11/06 12:40:33;;;;;;;1.27;0.87;;;13.50;99.90;;;;;;5037997;28;20444;-69
2023/11/06 12:43:01;;;;;;;1.30;1.20;;;13.50;99.90;;;;;;5038191;28;20177;-69
2023/11/06 12:45:30;;;;;;;2.60;0.90;;;13.50;99.90;;;;;;5038227;28;20425;-69
2023/11/06 12:47:56;;;;;;;1.67;0.80;;;13.50;99.90;;;;;;5033206;28;20445;-69
2023/11/06 12:50:21;;;;;;;1.70;0.80;;;13.30;99.90;;;;;;5036761;28;20444;-69